Aérodrome :
LOGIN :

S'inscrire | Disclaimer

   EN    FR    IT 

 










Légende :    VFR   VFR Marginal   IFR   IFR Intensif   IFR Très Intensif
Visi : 
Plafond : 
>= 8 km
>= 3000ft
5 à 8 km
1000 à 3000 ft
1500m à 5 km
500 à 1000 ft
800 à 1500m
200 à 500 ft
< 800m
< 200 ft
Symboles :   Orages  Brouillard  Fortes neiges  Fortes précipitations  Vent > 20 kt
SIGMETs :   Divers  Orages  Givrage  Turbulence  Onde Orograph.  Cendres Volcan.






- Altitude de l'aérodrome : 200 ft


EBBL - Klein Brogel AB

DERNIER METAR :
  • 281255Z 03012KT 9999 FEW250 21/02 Q1032 BLU BLU

METARs EXPIRÉS :
  • 281225Z 05011KT 9999 FEW250 21/03 Q1032 BLU BLU
  • 281155Z 08009KT 9999 FEW250 21/03 Q1032 BLU BLU
  • 281125Z 04010KT 9999 FEW250 20/04 Q1033 BLU BLU
  • 281055Z 06010KT 9999 SKC 20/04 Q1033 BLU BLU
  • 281025Z 06011KT 9999 SKC 19/04 Q1033 BLU BLU

TAF TAF EBBL
Valide du 28 à 13h jusqu'au 28 à 22h UTC


281141Z 2813/2822 06010KT 9999 FEW250
TEMPO 2813/2818 05010G20KT SCT250



MET'MAP, la Météo Aéronautique d'un coup d'oeil ! - Copyright ORBIFLY Décembre 2007 - Disclaimer

ORBIFLY MET'MAP TEAM :

Programmation & Développement : Alexandra Zaïnal
Sur une idée originale de : Baudouin d'Aumeries
Assistance à la programmation : Marc-Olivier Méhu
Soutien technique & logistique : Manuel Goepfert

Contact : metmap@orbifly.com




SOURCES & CREDITS :

   NOAA